Time;durP1;ratioP1;P1;durP2;ratioP2;P2;SDS_P1;SDS_P2;PMS_P1;PMS_P2;Temp;Humidity;BMP_temperature;BMP_pressure;BME280_temperature;BME280_humidity;BME280_pressure;Samples;Min_cycle;Max_cycle;Signal;HPM_P1;HPM_P2
2023/01/23 00:00:35;;;;;;;54.90;30.58;;;-1.60;81.90;;;;;;5013844;28;20452;-64
2023/01/23 00:03:01;;;;;;;45.75;28.33;;;-1.60;81.90;;;;;;5014291;28;20154;-64
2023/01/23 00:05:27;;;;;;;43.38;26.55;;;-1.70;82.10;;;;;;5017327;28;20474;-64
2023/01/23 00:07:52;;;;;;;51.47;28.85;;;-1.50;80.30;;;;;;5014365;28;20034;-64
2023/01/23 00:10:18;;;;;;;45.60;27.70;;;-1.50;82.00;;;;;;5016347;28;20128;-63
2023/01/23 00:12:47;;;;;;;46.53;26.75;;;-1.40;80.60;;;;;;5016336;28;20026;-64
2023/01/23 00:15:15;;;;;;;47.20;26.75;;;-1.40;83.10;;;;;;5013592;28;20407;-64
2023/01/23 00:17:41;;;;;;;45.40;27.17;;;-1.40;84.20;;;;;;5017882;28;20022;-64
2023/01/23 00:20:11;;;;;;;46.67;27.40;;;-1.40;84.30;;;;;;5014567;28;20018;-64
2023/01/23 00:22:37;;;;;;;41.90;25.50;;;-1.40;83.60;;;;;;5015595;28;20033;-64
2023/01/23 00:25:03;;;;;;;39.33;24.40;;;-1.40;85.30;;;;;;5015397;28;20032;-64
2023/01/23 00:27:29;;;;;;;45.90;26.75;;;-1.40;85.50;;;;;;5014650;28;20076;-64
2023/01/23 00:29:55;;;;;;;48.65;28.20;;;-1.50;86.40;;;;;;5013648;28;20030;-64
2023/01/23 00:32:21;;;;;;;48.67;28.35;;;-1.50;85.70;;;;;;5014527;28;20083;-64
2023/01/23 00:34:47;;;;;;;41.83;26.27;;;-1.50;85.30;;;;;;5019090;28;20060;-64
2023/01/23 00:37:12;;;;;;;41.80;26.05;;;-1.50;86.10;;;;;;5019203;28;20054;-64
2023/01/23 00:39:39;;;;;;;44.15;26.65;;;-1.50;85.60;;;;;;5014349;28;20381;-64
2023/01/23 00:42:05;;;;;;;45.65;26.33;;;-1.50;86.50;;;;;;5017257;28;20025;-64
2023/01/23 00:44:31;;;;;;;39.25;24.88;;;-1.50;86.50;;;;;;5020941;28;20026;-64
2023/01/23 00:46:57;;;;;;;48.40;27.67;;;-1.50;87.60;;;;;;5014585;28;20029;-64
2023/01/23 00:49:23;;;;;;;39.47;24.45;;;-1.50;87.30;;;;;;5015722;28;20422;-64
2023/01/23 00:51:49;;;;;;;44.58;25.77;;;-1.40;86.90;;;;;;5010360;28;20026;-64
2023/01/23 00:54:15;;;;;;;41.13;25.15;;;-1.50;88.00;;;;;;5008870;28;20092;-64
2023/01/23 00:56:41;;;;;;;45.05;27.95;;;-1.40;87.60;;;;;;5007493;28;20097;-64
2023/01/23 00:59:07;;;;;;;39.30;25.55;;;-1.50;87.70;;;;;;5014981;28;20034;-64
2023/01/23 01:01:32;;;;;;;47.45;27.98;;;-1.50;87.00;;;;;;5012666;28;20076;-64
2023/01/23 01:03:58;;;;;;;46.45;28.05;;;-1.50;87.50;;;;;;5001880;28;20018;-64
2023/01/23 01:06:24;;;;;;;41.78;26.30;;;-1.50;87.80;;;;;;5008794;28;20042;-64
2023/01/23 01:08:50;;;;;;;48.08;28.35;;;-1.60;87.40;;;;;;5016002;28;20088;-64
2023/01/23 01:11:16;;;;;;;47.38;28.75;;;-1.50;87.00;;;;;;5015522;28;20052;-64
2023/01/23 01:13:42;;;;;;;49.70;29.10;;;-1.50;86.40;;;;;;5017500;28;20026;-64
2023/01/23 01:16:09;;;;;;;49.97;29.45;;;-1.50;86.60;;;;;;5012873;28;20058;-64
2023/01/23 01:18:35;;;;;;;48.67;28.73;;;-1.50;86.30;;;;;;5015966;28;20026;-64
2023/01/23 01:21:04;;;;;;;40.83;25.25;;;-1.50;86.10;;;;;;5010899;28;20025;-64
2023/01/23 01:23:29;;;;;;;48.65;27.48;;;-1.40;86.30;;;;;;5014934;28;20036;-65
2023/01/23 01:25:58;;;;;;;36.35;23.05;;;-1.50;86.70;;;;;;5015126;28;20034;-64
2023/01/23 01:28:26;;;;;;;42.60;26.58;;;-1.40;86.00;;;;;;5018155;28;20100;-63
2023/01/23 01:30:54;;;;;;;43.17;25.60;;;-1.40;86.80;;;;;;5017016;28;20061;-64
2023/01/23 01:33:19;;;;;;;40.03;24.55;;;-1.40;88.00;;;;;;5012355;28;20030;-64
2023/01/23 01:35:45;;;;;;;37.35;22.33;;;-1.40;88.30;;;;;;4997535;28;20083;-64
2023/01/23 01:38:11;;;;;;;43.60;25.38;;;-1.40;88.70;;;;;;4994083;28;20355;-63
2023/01/23 01:40:37;;;;;;;41.20;24.33;;;-1.40;88.70;;;;;;5008057;28;20030;-63
2023/01/23 01:43:14;;;;;;;40.53;25.13;;;-1.40;89.00;;;;;;5025250;28;20030;-64
2023/01/23 01:46:03;;;;;;;37.13;22.80;;;-1.40;89.20;;;;;;5007032;28;20188;-64
2023/01/23 01:48:38;;;;;;;42.13;26.27;;;-1.40;88.50;;;;;;5028072;28;20034;-64
2023/01/23 01:51:27;;;;;;;39.13;24.13;;;-1.40;89.00;;;;;;5014945;28;20025;-64
2023/01/23 01:54:05;;;;;;;42.00;24.90;;;-1.40;88.50;;;;;;5016075;28;20117;-64
2023/01/23 01:56:42;;;;;;;34.40;22.05;;;-1.30;89.20;;;;;;4996950;28;20030;-64
2023/01/23 01:59:09;;;;;;;33.80;20.85;;;-1.40;89.90;;;;;;5012384;28;20320;-64
2023/01/23 02:01:36;;;;;;;34.00;21.08;;;-1.40;90.30;;;;;;4993669;28;20141;-64
2023/01/23 02:04:03;;;;;;;30.58;19.48;;;-1.40;91.60;;;;;;5013880;28;20439;-64
2023/01/23 02:06:28;;;;;;;29.88;18.92;;;-1.40;90.50;;;;;;5008926;28;20022;-64
2023/01/23 02:09:24;;;;;;;33.72;20.08;;;-1.30;92.60;;;;;;4995556;28;20072;-64
2023/01/23 02:11:50;;;;;;;31.13;19.73;;;-1.40;93.10;;;;;;5012162;28;20061;-63
2023/01/23 02:14:16;;;;;;;28.50;18.42;;;-1.40;93.70;;;;;;5009227;28;20041;-63
2023/01/23 02:16:49;;;;;;;39.58;24.90;;;-1.40;93.60;;;;;;5012505;28;20030;-63
2023/01/23 02:19:33;;;;;;;35.08;22.45;;;-1.40;93.10;;;;;;5014359;28;20065;-63
2023/01/23 02:22:23;;;;;;;36.95;22.67;;;-1.30;92.40;;;;;;5010329;28;20034;-65
2023/01/23 02:25:03;;;;;;;42.30;24.35;;;-1.40;92.40;;;;;;5013603;28;20049;-65
2023/01/23 02:27:28;;;;;;;46.72;27.38;;;-1.40;92.10;;;;;;5009591;28;20084;-65
2023/01/23 02:29:55;;;;;;;49.90;29.10;;;-1.40;91.30;;;;;;5009409;28;20497;-65
2023/01/23 02:32:23;;;;;;;42.22;24.63;;;-1.50;90.90;;;;;;5015500;28;20054;-65
2023/01/23 02:34:50;;;;;;;43.63;26.02;;;-1.50;88.90;;;;;;5013826;28;20053;-65
2023/01/23 02:37:17;;;;;;;42.20;25.02;;;-1.50;88.70;;;;;;4998719;28;20022;-65
2023/01/23 02:39:50;;;;;;;46.63;27.20;;;-1.50;87.80;;;;;;5011210;28;20026;-64
2023/01/23 02:42:16;;;;;;;33.95;21.52;;;-1.50;88.40;;;;;;5001819;28;20053;-64
2023/01/23 02:44:41;;;;;;;34.10;21.02;;;-1.50;89.10;;;;;;5017572;28;20061;-65
2023/01/23 02:47:11;;;;;;;36.08;21.80;;;-1.50;90.10;;;;;;5015069;28;20110;-64
2023/01/23 02:49:38;;;;;;;34.50;21.65;;;-1.40;91.50;;;;;;5020043;28;20036;-64
2023/01/23 02:52:05;;;;;;;32.10;19.58;;;-1.40;92.20;;;;;;4997039;28;20060;-64
2023/01/23 02:54:31;;;;;;;33.00;19.13;;;-1.40;92.70;;;;;;4995587;28;20021;-64
2023/01/23 02:56:57;;;;;;;29.55;18.88;;;-1.40;93.40;;;;;;4996197;28;20022;-64
2023/01/23 03:02:07;;;;;;;22.05;14.57;;;-1.50;94.20;;;;;;5009996;28;20037;-64
2023/01/23 03:04:33;;;;;;;21.95;14.75;;;-1.60;95.20;;;;;;5013638;28;20018;-64
2023/01/23 03:06:59;;;;;;;24.08;15.07;;;-1.50;96.20;;;;;;5018439;28;20030;-64
2023/01/23 03:09:25;;;;;;;15.73;10.43;;;-1.50;97.90;;;;;;5015126;28;20095;-64
2023/01/23 03:11:51;;;;;;;17.27;10.57;;;-1.50;98.00;;;;;;5011150;28;20457;-64
2023/01/23 03:14:18;;;;;;;16.23;10.35;;;-1.50;98.00;;;;;;5013821;28;20326;-64
2023/01/23 03:16:49;;;;;;;25.27;16.15;;;-1.40;98.00;;;;;;5016698;28;20033;-64
2023/01/23 03:19:15;;;;;;;33.63;20.02;;;-1.40;98.00;;;;;;5017219;28;20018;-64
2023/01/23 03:21:40;;;;;;;40.83;24.67;;;-1.40;98.00;;;;;;5000708;28;20193;-64
2023/01/23 03:24:11;;;;;;;40.28;24.10;;;-1.40;96.20;;;;;;5005236;28;20116;-64
2023/01/23 03:26:39;;;;;;;37.00;23.60;;;-1.50;94.50;;;;;;5016293;28;20446;-64
2023/01/23 03:31:49;;;;;;;;;;;-1.50;93.70;;;;;;5008928;28;20139;-65
2023/01/23 03:34:16;;;;;;;35.40;21.05;;;-1.60;94.80;;;;;;5013583;28;19914;-64
2023/01/23 03:36:43;;;;;;;40.20;23.35;;;-1.60;93.60;;;;;;5003319;28;20038;-64
2023/01/23 03:41:53;;;;;;;41.20;24.05;;;-1.70;94.40;;;;;;4999524;28;20398;-64
2023/01/23 03:44:20;;;;;;;37.03;22.35;;;-1.70;94.00;;;;;;4998485;28;20034;-64
2023/01/23 03:46:47;;;;;;;35.25;20.98;;;-1.70;92.30;;;;;;5005717;28;20412;-64
2023/01/23 03:49:12;;;;;;;24.85;15.95;;;-1.70;91.80;;;;;;4998798;28;20117;-64
2023/01/23 03:51:38;;;;;;;26.58;16.05;;;-1.60;92.60;;;;;;5008405;28;20470;-64
2023/01/23 03:54:04;;;;;;;29.50;18.42;;;-1.60;93.80;;;;;;5014465;28;20034;-64
2023/01/23 03:56:29;;;;;;;33.50;19.77;;;-1.70;95.10;;;;;;5012438;28;20062;-64
2023/01/23 03:58:55;;;;;;;40.58;23.45;;;-1.70;94.00;;;;;;5004647;28;20034;-64
2023/01/23 04:01:21;;;;;;;36.75;22.85;;;-1.60;93.30;;;;;;4999673;28;20483;-64
2023/01/23 04:03:48;;;;;;;18.73;12.20;;;-1.60;93.00;;;;;;4981210;28;20018;-64
2023/01/23 04:06:13;;;;;;;11.98;7.65;;;-1.70;94.80;;;;;;5000749;28;20035;-64
2023/01/23 04:08:39;;;;;;;20.33;13.30;;;-1.80;98.00;;;;;;5015969;28;20096;-65
2023/01/23 04:11:06;;;;;;;25.63;16.95;;;-1.80;98.00;;;;;;5015193;28;20049;-64
2023/01/23 04:13:32;;;;;;;24.33;15.05;;;-1.60;97.20;;;;;;5017238;28;20040;-64
2023/01/23 04:15:59;;;;;;;31.95;19.20;;;-1.60;97.70;;;;;;5016470;28;20327;-64
2023/01/23 04:18:24;;;;;;;22.75;13.75;;;-1.70;96.90;;;;;;5027047;28;20418;-64
2023/01/23 04:20:50;;;;;;;19.63;10.63;;;-1.60;97.70;;;;;;5015144;28;20060;-64
2023/01/23 04:23:16;;;;;;;18.55;12.25;;;-1.70;98.00;;;;;;4998763;28;20439;-64
2023/01/23 04:25:42;;;;;;;15.70;10.15;;;-1.70;98.00;;;;;;5009790;28;20442;-64
2023/01/23 04:28:07;;;;;;;14.18;9.15;;;-1.70;98.00;;;;;;5016893;28;20089;-64
2023/01/23 04:30:33;;;;;;;26.65;16.00;;;-1.70;98.00;;;;;;5018000;28;20465;-64
2023/01/23 04:32:58;;;;;;;53.50;30.25;;;-1.70;98.00;;;;;;5013471;28;20025;-64
2023/01/23 04:35:24;;;;;;;55.78;30.27;;;-1.70;98.00;;;;;;4994526;28;20415;-64
2023/01/23 04:37:49;;;;;;;77.32;39.13;;;-1.60;97.00;;;;;;5012801;28;20028;-64
2023/01/23 04:40:15;;;;;;;75.75;39.78;;;-1.60;95.10;;;;;;5013181;28;20112;-64
2023/01/23 04:42:41;;;;;;;54.20;29.88;;;-1.60;94.50;;;;;;4997551;28;20490;-65
2023/01/23 04:45:08;;;;;;;45.38;27.52;;;-1.60;93.30;;;;;;5011754;28;20427;-64
2023/01/23 04:47:34;;;;;;;42.88;26.08;;;-1.60;93.40;;;;;;5016064;28;20442;-64
2023/01/23 04:50:00;;;;;;;46.80;26.83;;;-1.60;92.30;;;;;;5013383;28;20053;-64
2023/01/23 04:52:25;;;;;;;48.92;27.48;;;-1.70;92.00;;;;;;5023699;28;20072;-65
2023/01/23 04:54:51;;;;;;;44.20;26.00;;;-1.80;91.00;;;;;;5010572;28;20026;-64
2023/01/23 04:57:16;;;;;;;39.70;24.42;;;-1.70;89.20;;;;;;5015657;28;20088;-64
2023/01/23 04:59:42;;;;;;;39.20;23.30;;;-1.70;89.50;;;;;;5010627;28;20430;-64
2023/01/23 05:02:08;;;;;;;29.77;17.23;;;-1.60;90.60;;;;;;5009238;28;20026;-65
2023/01/23 05:04:34;;;;;;;28.25;17.52;;;-1.70;91.20;;;;;;5013771;28;20022;-64
2023/01/23 05:06:59;;;;;;;24.88;15.45;;;-1.70;93.00;;;;;;5019502;28;20018;-64
2023/01/23 05:09:28;;;;;;;20.90;12.50;;;-1.70;94.50;;;;;;5014500;28;20083;-63
2023/01/23 05:11:53;;;;;;;24.35;15.75;;;-1.70;96.00;;;;;;5014579;28;20054;-64
2023/01/23 05:14:20;;;;;;;23.02;13.35;;;-1.80;96.20;;;;;;5010844;28;20033;-64
2023/01/23 05:16:46;;;;;;;16.63;11.15;;;-1.80;96.90;;;;;;5012319;28;20304;-65
2023/01/23 05:19:12;;;;;;;20.63;13.18;;;-1.80;98.00;;;;;;5013509;28;20108;-66
2023/01/23 05:21:38;;;;;;;39.25;22.02;;;-1.80;98.00;;;;;;4992549;28;20095;-65
2023/01/23 05:24:04;;;;;;;41.40;25.25;;;-1.70;97.30;;;;;;5013537;28;20029;-65
2023/01/23 05:26:29;;;;;;;45.22;25.77;;;-1.70;95.40;;;;;;5010011;28;20029;-65
2023/01/23 05:28:55;;;;;;;40.92;24.25;;;-1.70;94.30;;;;;;5014671;28;20040;-65
2023/01/23 05:31:29;;;;;;;42.22;24.35;;;-1.70;93.20;;;;;;5011735;28;20037;-65
2023/01/23 05:33:54;;;;;;;;;;;-1.80;92.20;;;;;;4995901;28;20030;-65
2023/01/23 05:36:20;;;;;;;50.78;26.80;;;-1.80;92.20;;;;;;5014603;28;20316;-65
2023/01/23 05:38:45;;;;;;;41.00;24.58;;;-1.80;91.30;;;;;;5003858;28;20033;-65
2023/01/23 05:41:11;;;;;;;40.83;24.15;;;-1.80;90.20;;;;;;4998373;28;20037;-64
2023/01/23 05:43:36;;;;;;;40.53;24.90;;;-1.80;89.80;;;;;;4998770;28;20049;-64
2023/01/23 05:46:02;;;;;;;40.20;24.10;;;-1.70;90.30;;;;;;4998081;28;20671;-65
2023/01/23 05:48:28;;;;;;;55.42;31.33;;;-1.80;89.90;;;;;;4998986;28;20034;-65
2023/01/23 05:50:54;;;;;;;62.80;37.08;;;-1.70;90.10;;;;;;4998421;28;20026;-65
2023/01/23 05:53:19;;;;;;;41.50;25.70;;;-1.80;89.40;;;;;;4999095;28;20057;-64
2023/01/23 05:55:45;;;;;;;47.22;26.02;;;-1.70;87.60;;;;;;5012144;28;20029;-64
2023/01/23 05:58:11;;;;;;;41.33;24.40;;;-1.70;90.00;;;;;;5012257;28;20026;-65
2023/01/23 06:00:36;;;;;;;46.30;27.15;;;-1.80;88.60;;;;;;5002907;28;20014;-65
2023/01/23 06:03:02;;;;;;;47.30;28.35;;;-1.80;89.40;;;;;;4998003;28;20449;-65
2023/01/23 06:05:28;;;;;;;57.58;30.50;;;-1.80;88.00;;;;;;4995350;28;20033;-65
2023/01/23 06:07:54;;;;;;;45.78;25.70;;;-1.90;88.60;;;;;;4998540;28;20354;-65
2023/01/23 06:10:19;;;;;;;39.97;22.25;;;-1.90;87.70;;;;;;5013929;28;20108;-65
2023/01/23 06:12:45;;;;;;;33.60;20.55;;;-1.80;86.40;;;;;;5014450;28;20038;-64
2023/01/23 06:15:11;;;;;;;39.83;22.92;;;-1.70;88.10;;;;;;5006941;28;20033;-65
2023/01/23 06:17:36;;;;;;;41.75;24.90;;;-1.70;90.40;;;;;;5004394;28;20034;-64
2023/01/23 06:20:03;;;;;;;37.60;22.58;;;-1.70;90.50;;;;;;5009247;28;20033;-65
2023/01/23 06:22:29;;;;;;;29.27;17.83;;;-1.70;88.90;;;;;;4999411;28;20108;-64
2023/01/23 06:24:55;;;;;;;29.38;17.77;;;-1.70;91.50;;;;;;5011879;28;20104;-64
2023/01/23 06:27:20;;;;;;;26.02;17.10;;;-1.80;92.40;;;;;;5010089;28;20026;-64
2023/01/23 06:29:46;;;;;;;36.45;20.90;;;-1.70;93.30;;;;;;5010615;28;20072;-64
2023/01/23 06:32:12;;;;;;;31.65;19.10;;;-1.70;93.90;;;;;;5008747;28;20033;-64
2023/01/23 06:34:37;;;;;;;29.02;18.77;;;-1.80;95.00;;;;;;5012950;28;20446;-64
2023/01/23 06:37:03;;;;;;;28.98;18.05;;;-1.70;94.80;;;;;;5006327;28;20041;-64
2023/01/23 06:39:29;;;;;;;31.88;19.48;;;-1.60;94.80;;;;;;5014322;28;20045;-64
2023/01/23 06:41:55;;;;;;;29.58;17.60;;;-1.70;96.30;;;;;;5012650;28;20054;-64
2023/01/23 06:44:21;;;;;;;30.77;19.48;;;-1.70;95.40;;;;;;5010910;28;20386;-64
2023/01/23 06:46:46;;;;;;;36.90;22.02;;;-1.60;96.20;;;;;;5009365;28;20113;-64
2023/01/23 06:49:12;;;;;;;50.78;29.60;;;-1.60;96.80;;;;;;5012201;28;20482;-64
2023/01/23 06:51:38;;;;;;;31.63;19.95;;;-1.60;96.10;;;;;;5012851;28;20034;-64
2023/01/23 06:54:03;;;;;;;31.02;20.02;;;-1.60;96.30;;;;;;4997362;28;20307;-64
2023/01/23 06:56:29;;;;;;;34.85;20.65;;;-1.60;96.80;;;;;;5011700;28;20030;-64
2023/01/23 06:58:54;;;;;;;32.10;20.13;;;-1.60;97.50;;;;;;5011668;28;20092;-64
2023/01/23 07:01:20;;;;;;;33.22;20.20;;;-1.70;96.90;;;;;;5008737;28;20026;-64
2023/01/23 07:03:46;;;;;;;30.42;18.83;;;-1.70;96.90;;;;;;5015462;28;20025;-63
2023/01/23 07:06:13;;;;;;;33.30;21.08;;;-1.70;96.50;;;;;;5014758;28;20049;-63
2023/01/23 07:08:40;;;;;;;31.35;19.88;;;-1.70;96.20;;;;;;5014588;28;20030;-63
2023/01/23 07:11:06;;;;;;;36.42;21.83;;;-1.60;96.10;;;;;;5013806;28;20038;-64
2023/01/23 07:13:32;;;;;;;40.47;24.10;;;-1.60;96.40;;;;;;5012947;28;20071;-63
2023/01/23 07:15:57;;;;;;;36.38;21.95;;;-1.70;96.10;;;;;;5015840;28;20030;-63
2023/01/23 07:18:24;;;;;;;37.80;23.58;;;-1.70;95.20;;;;;;5014530;28;20105;-64
2023/01/23 07:20:49;;;;;;;38.40;23.77;;;-1.70;94.50;;;;;;5013699;28;20060;-63
2023/01/23 07:23:15;;;;;;;38.35;23.25;;;-1.70;93.70;;;;;;5013434;28;20416;-64
2023/01/23 07:25:41;;;;;;;47.47;27.23;;;-1.70;94.10;;;;;;5015549;28;20124;-63
2023/01/23 07:28:07;;;;;;;40.92;24.10;;;-1.70;93.80;;;;;;5015040;28;20319;-63
2023/01/23 07:30:33;;;;;;;35.85;22.58;;;-1.70;92.70;;;;;;5019393;28;20058;-64
2023/01/23 07:32:59;;;;;;;40.08;23.90;;;-1.60;92.80;;;;;;5017521;28;20029;-63
2023/01/23 07:35:24;;;;;;;42.40;25.13;;;-1.50;93.70;;;;;;5019172;28;20117;-63
2023/01/23 07:37:50;;;;;;;39.65;24.85;;;-1.50;94.50;;;;;;5017308;28;20327;-64
2023/01/23 07:40:15;;;;;;;29.63;18.92;;;-1.40;94.50;;;;;;5019416;28;20021;-63
2023/01/23 07:42:41;;;;;;;32.85;20.67;;;-1.40;96.10;;;;;;5017337;28;20033;-63
2023/01/23 07:45:08;;;;;;;33.47;20.38;;;-1.40;96.60;;;;;;5019288;28;20083;-64
2023/01/23 07:47:35;;;;;;;32.50;19.65;;;-1.40;96.60;;;;;;5016825;28;20048;-63
2023/01/23 07:50:01;;;;;;;31.35;18.60;;;-1.40;97.30;;;;;;5019032;28;20099;-63
2023/01/23 07:52:26;;;;;;;30.75;19.17;;;-1.40;98.00;;;;;;5015950;28;20411;-64
2023/01/23 07:54:52;;;;;;;32.27;20.33;;;-1.40;98.00;;;;;;5018017;28;20158;-64
2023/01/23 07:57:20;;;;;;;31.77;18.23;;;-1.40;98.00;;;;;;5016786;28;20022;-63
2023/01/23 07:59:46;;;;;;;31.48;18.63;;;-1.40;98.00;;;;;;5019003;28;20022;-63
2023/01/23 08:02:12;;;;;;;28.88;17.90;;;-1.40;98.00;;;;;;5012288;28;20054;-62
2023/01/23 08:04:37;;;;;;;29.13;18.23;;;-1.40;98.00;;;;;;5018065;28;20096;-62
2023/01/23 08:07:03;;;;;;;30.10;18.63;;;-1.40;98.00;;;;;;5015894;28;20026;-63
2023/01/23 08:09:28;;;;;;;27.48;17.35;;;-1.40;98.00;;;;;;5013165;28;20038;-62
2023/01/23 08:11:54;;;;;;;29.25;18.45;;;-1.40;98.00;;;;;;5018372;28;20046;-65
2023/01/23 08:14:20;;;;;;;28.65;17.92;;;-1.40;98.00;;;;;;5018454;28;20030;-64
2023/01/23 08:16:50;;;;;;;27.02;16.42;;;-1.30;98.00;;;;;;5018546;28;20022;-64
2023/01/23 08:19:16;;;;;;;26.40;16.58;;;-1.30;98.00;;;;;;5018330;28;20053;-64
2023/01/23 08:21:42;;;;;;;25.45;15.82;;;-1.10;98.00;;;;;;5017263;28;20084;-64
2023/01/23 08:24:10;;;;;;;25.70;16.90;;;-0.90;98.00;;;;;;5017766;28;20034;-64
2023/01/23 08:26:35;;;;;;;34.70;20.80;;;-0.80;98.00;;;;;;5017995;28;20018;-64
2023/01/23 08:29:01;;;;;;;31.75;19.60;;;-0.70;98.00;;;;;;5018389;28;20033;-63
2023/01/23 08:31:27;;;;;;;25.20;16.75;;;-0.60;98.00;;;;;;5018164;28;20076;-64
2023/01/23 08:33:52;;;;;;;40.35;24.13;;;-0.70;98.00;;;;;;5017152;28;20029;-63
2023/01/23 08:36:18;;;;;;;30.48;18.90;;;-0.50;98.00;;;;;;5018100;28;20026;-64
2023/01/23 08:38:43;;;;;;;25.00;15.25;;;-0.40;98.00;;;;;;5014721;28;20022;-64
2023/01/23 08:41:10;;;;;;;25.25;15.85;;;-0.30;98.00;;;;;;5017931;28;20068;-64
2023/01/23 08:43:37;;;;;;;23.23;15.45;;;-0.20;98.00;;;;;;5016955;28;20021;-63
2023/01/23 08:46:02;;;;;;;27.73;17.25;;;-0.10;98.00;;;;;;5018130;28;20081;-63
2023/01/23 08:48:28;;;;;;;22.67;14.82;;;0.00;98.00;;;;;;5016860;28;20034;-63
2023/01/23 08:51:00;;;;;;;21.98;14.57;;;0.10;98.00;;;;;;5017866;28;20029;-64
2023/01/23 08:53:26;;;;;;;24.73;16.17;;;0.20;98.00;;;;;;5014867;28;20109;-63
2023/01/23 08:55:51;;;;;;;25.50;17.17;;;0.00;98.00;;;;;;5017750;28;20164;-64
2023/01/23 08:58:17;;;;;;;28.08;18.30;;;0.10;98.00;;;;;;5016225;28;20453;-63
2023/01/23 09:00:42;;;;;;;25.80;16.73;;;0.20;98.00;;;;;;5017794;28;20022;-64
2023/01/23 09:03:09;;;;;;;25.45;16.45;;;0.40;98.00;;;;;;5016725;28;20093;-64
2023/01/23 09:05:35;;;;;;;32.60;21.02;;;0.50;98.00;;;;;;5017714;28;20028;-63
2023/01/23 09:08:00;;;;;;;34.85;21.90;;;0.60;98.00;;;;;;5014373;28;20091;-63
2023/01/23 09:10:26;;;;;;;24.40;16.17;;;0.50;98.00;;;;;;5017404;28;20335;-64
2023/01/23 09:12:54;;;;;;;32.35;21.35;;;0.40;98.00;;;;;;5016698;28;20034;-63
2023/01/23 09:15:21;;;;;;;27.48;18.45;;;0.30;98.00;;;;;;5017284;28;20080;-64
2023/01/23 09:17:47;;;;;;;30.17;18.40;;;0.20;98.00;;;;;;5016426;28;20026;-64
2023/01/23 09:20:14;;;;;;;30.92;18.15;;;0.20;98.00;;;;;;5016096;28;20057;-63
2023/01/23 09:22:40;;;;;;;25.30;16.25;;;0.20;98.00;;;;;;5015223;28;20048;-64
2023/01/23 09:25:07;;;;;;;25.50;16.88;;;0.20;98.00;;;;;;5016491;28;20041;-64
2023/01/23 09:27:32;;;;;;;25.30;17.33;;;0.20;98.00;;;;;;5013632;28;20022;-63
2023/01/23 09:29:58;;;;;;;26.48;16.70;;;0.10;98.00;;;;;;5014659;28;20017;-63
2023/01/23 09:32:23;;;;;;;25.80;16.63;;;0.10;98.00;;;;;;5016033;28;20129;-64
2023/01/23 09:34:49;;;;;;;23.75;15.55;;;0.10;98.00;;;;;;5015991;28;20026;-64
2023/01/23 09:37:15;;;;;;;29.77;16.40;;;0.10;98.00;;;;;;5013511;28;20108;-63
2023/01/23 09:39:44;;;;;;;27.77;16.90;;;0.00;98.00;;;;;;5017024;28;20037;-63
2023/01/23 09:42:28;;;;;;;28.58;17.85;;;-0.20;98.00;;;;;;5016257;28;20038;-63
2023/01/23 09:44:59;;;;;;;27.08;18.10;;;-0.30;98.00;;;;;;5017039;28;20026;-64
2023/01/23 09:47:43;;;;;;;26.67;17.30;;;-0.30;98.00;;;;;;5016068;28;20026;-64
2023/01/23 09:50:22;;;;;;;26.95;16.75;;;-0.30;98.00;;;;;;5016761;28;20025;-63
2023/01/23 09:52:54;;;;;;;41.75;27.48;;;-0.30;98.00;;;;;;5014086;28;20041;-63
2023/01/23 09:55:23;;;;;;;30.05;19.85;;;-0.20;98.00;;;;;;5016778;28;20025;-64
2023/01/23 09:57:55;;;;;;;30.67;20.52;;;-0.10;98.00;;;;;;5015882;28;20049;-63
2023/01/23 10:00:32;;;;;;;32.58;20.67;;;-0.10;98.00;;;;;;5012754;28;20079;-63
2023/01/23 10:03:09;;;;;;;29.02;18.85;;;0.10;98.00;;;;;;5005234;28;20022;-64
2023/01/23 10:06:11;;;;;;;32.08;20.83;;;0.30;98.00;;;;;;5016557;28;20026;-63
2023/01/23 10:08:57;;;;;;;33.40;19.13;;;0.60;98.00;;;;;;4995585;28;20044;-65
2023/01/23 10:11:41;;;;;;;30.23;17.75;;;0.80;98.00;;;;;;4996762;28;20057;-64
2023/01/23 10:14:28;;;;;;;31.23;18.13;;;1.00;98.00;;;;;;4996980;28;20042;-64
2023/01/23 10:17:13;;;;;;;28.73;17.95;;;1.00;98.00;;;;;;4996676;28;20362;-64
2023/01/23 10:20:13;;;;;;;29.40;19.05;;;1.20;98.00;;;;;;4996775;28;20109;-64
2023/01/23 10:22:48;;;;;;;30.77;18.88;;;0.80;98.00;;;;;;4995392;28;20027;-64
2023/01/23 10:25:20;;;;;;;30.83;17.77;;;0.70;98.00;;;;;;4996608;28;20026;-63
2023/01/23 10:27:48;;;;;;;29.60;18.23;;;0.50;98.00;;;;;;5008789;28;20021;-64
2023/01/23 10:30:33;;;;;;;28.38;17.67;;;0.40;98.00;;;;;;5016209;28;20029;-64
2023/01/23 10:33:20;;;;;;;30.38;17.85;;;0.30;98.00;;;;;;5016203;28;20057;-64
2023/01/23 10:35:52;;;;;;;31.90;19.90;;;0.40;98.00;;;;;;5015579;28;20450;-64
2023/01/23 10:38:47;;;;;;;33.67;21.77;;;0.40;98.00;;;;;;5015063;28;20097;-64
2023/01/23 10:41:16;;;;;;;29.88;19.55;;;0.20;98.00;;;;;;5015673;28;20029;-64
2023/01/23 10:43:53;;;;;;;32.25;20.35;;;0.10;98.00;;;;;;5015992;28;20018;-64
2023/01/23 10:46:29;;;;;;;34.22;20.63;;;0.30;98.00;;;;;;5008634;28;20054;-63
2023/01/23 10:48:55;;;;;;;38.53;21.83;;;0.30;98.00;;;;;;5016034;28;20370;-63
2023/01/23 10:51:25;;;;;;;37.13;23.30;;;0.30;98.00;;;;;;5015964;28;20030;-64
2023/01/23 10:54:12;;;;;;;32.92;20.08;;;0.30;98.00;;;;;;5015604;28;20033;-63
2023/01/23 10:56:46;;;;;;;32.70;20.55;;;0.30;98.00;;;;;;5015009;28;20470;-63
2023/01/23 10:59:31;;;;;;;28.33;17.63;;;0.20;98.00;;;;;;5015949;28;20030;-63
2023/01/23 11:02:00;;;;;;;37.55;21.98;;;0.20;98.00;;;;;;5016139;28;20068;-63
2023/01/23 11:04:28;;;;;;;35.53;21.48;;;0.20;98.00;;;;;;5020008;28;20032;-64
2023/01/23 11:07:13;;;;;;;35.13;21.67;;;0.20;98.00;;;;;;5018656;28;20041;-65
2023/01/23 11:09:56;;;;;;;37.72;21.20;;;0.20;98.00;;;;;;5019761;28;20415;-64
2023/01/23 11:12:28;;;;;;;33.23;21.30;;;0.30;98.00;;;;;;5018888;28;20042;-65
2023/01/23 11:15:12;;;;;;;38.53;23.90;;;0.40;98.00;;;;;;5019806;28;20026;-64
2023/01/23 11:17:38;;;;;;;35.00;21.10;;;0.40;98.00;;;;;;5019561;28;20029;-64
2023/01/23 11:20:20;;;;;;;40.47;23.60;;;0.50;98.00;;;;;;5019581;28;20040;-64
2023/01/23 11:22:45;;;;;;;35.75;22.05;;;0.50;98.00;;;;;;5018419;28;20022;-63
2023/01/23 11:25:34;;;;;;;42.97;23.65;;;0.30;98.00;;;;;;5001457;28;20032;-64
2023/01/23 11:28:17;;;;;;;38.90;22.63;;;0.30;98.00;;;;;;4999707;28;20023;-64
2023/01/23 11:31:05;;;;;;;44.23;26.43;;;0.30;98.00;;;;;;4999868;28;20031;-64
2023/01/23 11:33:40;;;;;;;42.40;24.67;;;0.20;98.00;;;;;;4999215;28;20039;-63
2023/01/23 11:36:28;;;;;;;31.17;19.35;;;0.20;98.00;;;;;;4999651;28;20314;-64
2023/01/23 11:39:04;;;;;;;35.75;21.08;;;0.20;98.00;;;;;;4999583;28;20481;-63
2023/01/23 11:41:31;;;;;;;32.17;20.05;;;0.40;98.00;;;;;;5012183;28;20034;-63
2023/01/23 11:43:58;;;;;;;38.65;23.23;;;0.50;98.00;;;;;;5019388;28;20026;-64
2023/01/23 11:46:44;;;;;;;40.67;24.63;;;0.40;98.00;;;;;;5019193;28;20033;-65
2023/01/23 11:49:47;;;;;;;31.83;19.58;;;0.20;98.00;;;;;;5018369;28;20033;-63
2023/01/23 11:52:33;;;;;;;35.65;22.08;;;0.30;98.00;;;;;;5017816;28;20026;-64
2023/01/23 11:55:10;;;;;;;40.15;24.23;;;0.30;98.00;;;;;;5018869;28;20049;-63
2023/01/23 11:57:54;;;;;;;33.72;20.85;;;0.30;98.00;;;;;;5019166;28;20022;-64
2023/01/23 12:00:48;;;;;;;32.03;19.02;;;0.40;98.00;;;;;;5018969;28;20473;-64
2023/01/23 12:03:32;;;;;;;35.38;21.27;;;0.40;98.00;;;;;;5017598;28;20067;-64
2023/01/23 12:06:35;;;;;;;31.55;18.00;;;0.20;98.00;;;;;;5018773;28;20113;-63
2023/01/23 12:09:07;;;;;;;34.72;21.52;;;0.10;98.00;;;;;;5018528;28;20308;-64
2023/01/23 12:11:49;;;;;;;34.88;21.10;;;0.20;98.00;;;;;;5018545;28;20046;-63
2023/01/23 12:14:57;;;;;;;42.83;24.75;;;0.20;98.00;;;;;;5000457;28;20037;-64
2023/01/23 12:17:40;;;;;;;40.17;23.65;;;0.00;98.00;;;;;;5003774;28;20040;-64
2023/01/23 12:20:24;;;;;;;33.72;19.83;;;-0.10;98.00;;;;;;4998837;28;20023;-64
2023/01/23 12:23:15;;;;;;;36.22;20.95;;;-0.10;98.00;;;;;;5017087;28;20327;-64
2023/01/23 12:25:46;;;;;;;36.60;22.95;;;0.20;98.00;;;;;;5018357;28;20053;-64
2023/01/23 12:28:33;;;;;;;35.20;21.48;;;0.40;98.00;;;;;;5018383;28;20371;-64
2023/01/23 12:31:07;;;;;;;37.05;21.45;;;0.70;98.00;;;;;;5016764;28;20104;-64
2023/01/23 12:33:59;;;;;;;37.97;22.85;;;0.70;98.00;;;;;;5017424;28;20033;-64
2023/01/23 12:37:05;;;;;;;40.58;22.90;;;0.60;98.00;;;;;;5016573;28;20034;-64
2023/01/23 12:39:50;;;;;;;40.08;23.08;;;0.60;98.00;;;;;;5018029;28;20034;-64
2023/01/23 12:42:29;;;;;;;32.85;19.48;;;0.60;98.00;;;;;;5017289;28;20330;-64
2023/01/23 12:45:09;;;;;;;35.88;21.60;;;0.60;98.00;;;;;;5018096;28;20121;-64
2023/01/23 12:47:43;;;;;;;37.60;22.77;;;0.70;98.00;;;;;;5016961;28;20029;-64
2023/01/23 12:50:41;;;;;;;35.72;20.52;;;0.60;98.00;;;;;;5017993;28;20218;-64
2023/01/23 12:53:12;;;;;;;41.50;23.42;;;0.60;98.00;;;;;;4997130;28;20037;-64